Latest Weather Observations for Dalby

IDQ60801

Issued at 5:02 am EST Sunday 16 December 2018 (issued every 10 minutes, with the page automatically refreshed every 10 minutes)

About weather observations | Map of weather stations | Latest weather observations for QLD | Other Formats
Station Details ID: 041522 Name: DALBY AIRPORT Lat: -27.16 Lon: 151.26 Height: 343.9 m
Data from the previous 72 hours. | See also: Recent months at Dalby
Date/Time
EST
Temp
°C
App
Temp
°C
Dew
Point
°C
Rel
Hum
%
Delta-T
°C
Wind Press
QNH
hPa
Press
MSL
hPa
Rain since
9am
mm
Dir  Spd
km/h
Gust
km/h
Spd
kts
Gust
kts
16/05:00am 21.6 23.3 19.3 87 1.5 NE 9 11 5 6 1009.4 1007.4 3.4
16/04:30am 22.0 23.8 19.5 86 1.6 ENE 9 11 5 6 1009.0 1007.0 3.4
16/04:00am 22.3 23.8 19.8 86 1.6 ENE 11 13 6 7 1008.9 1006.9 3.4
16/03:30am 22.5 23.7 20.0 86 1.6 ENE 13 15 7 8 1008.9 1006.9 3.4
16/03:00am 22.6 23.8 19.9 85 1.8 E 13 17 7 9 1008.7 1006.7 3.4
16/02:30am 22.6 23.4 19.9 85 1.8 ENE 15 20 8 11 1008.7 1006.7 3.4
16/02:00am 22.7 23.1 19.9 84 1.8 ENE 17 20 9 11 1008.5 1006.6 3.4
16/01:30am 22.9 22.5 20.1 84 1.8 ENE 22 32 12 17 1008.2 1006.3 3.4
16/01:00am 23.0 23.2 20.1 84 1.9 ENE 19 22 10 12 1008.7 1006.7 3.4
16/12:30am 23.3 23.9 20.2 83 2.0 ENE 17 20 9 11 1009.4 1007.4 3.4
16/12:00am 23.5 24.6 20.4 83 2.0 ENE 15 20 8 11 1009.6 1007.6 3.4
 
Date/Time
EST
Temp
°C
App
Temp
°C
Dew
Point
°C
Rel
Hum
%
Delta-T
°C
Wind Press
QNH
hPa
Press
MSL
hPa
Rain since
9am
mm
Dir  Spd
km/h
Gust
km/h
Spd
kts
Gust
kts
15/11:30pm 23.4 25.5 20.9 86 1.7 ENE 11 15 6 8 1009.4 1007.4 3.4
15/11:00pm 23.5 24.8 20.8 85 1.8 ESE 15 19 8 10 1009.8 1007.8 3.4
15/10:30pm 23.6 25.9 21.3 87 1.5 ESE 11 13 6 7 1009.8 1007.8 3.4
15/10:00pm 23.5 25.7 21.2 87 1.5 ESE 11 15 6 8 1009.8 1007.8 3.4
15/09:30pm 23.5 25.3 21.2 87 1.5 ENE 13 17 7 9 1009.6 1007.6 3.4
15/09:00pm 23.4 25.6 21.1 87 1.5 NNE 11 15 6 8 1009.3 1007.3 3.4
15/08:30pm 22.3 24.0 20.2 88 1.4 NW 11 15 6 8 1009.3 1007.3 3.2
15/08:00pm 22.3 22.8 19.3 83 1.9 WNW 15 26 8 14 1009.6 1007.6 1.2
15/07:30pm 24.9 26.0 21.2 80 2.5 N 17 22 9 12 1009.0 1007.0 0.6
15/07:00pm 25.5 26.5 20.3 73 3.4 N 15 20 8 11 1008.4 1006.5 0.0
15/06:30pm 27.4 27.2 19.7 63 5.1 N 20 30 11 16 1007.8 1005.8 0.0
15/06:00pm 28.4 28.3 19.9 60 5.6 NNE 20 28 11 15 1006.4 1004.4 0.0
15/05:30pm 29.0 27.4 19.3 55 6.4 NNE 26 33 14 18 1006.1 1004.1 0.0
15/05:00pm 30.3 27.5 19.0 50 7.5 NNE 32 39 17 21 1005.2 1003.2 0.0
15/04:30pm 30.6 28.9 19.9 52 7.1 N 28 37 15 20 1005.3 1003.3 0.0
15/04:00pm 30.9 29.0 19.3 50 7.7 N 28 37 15 20 1005.4 1003.4 0.0
15/03:30pm 31.6 30.0 19.2 47 8.2 NNE 26 37 14 20 1005.5 1003.5 0.0
15/03:00pm 32.1 31.0 19.4 47 8.5 N 24 33 13 18 1005.9 1003.9 0.0
15/02:30pm 31.6 30.1 18.6 46 8.5 NNE 24 32 13 17 1006.0 1004.0 0.0
15/02:00pm 31.6 29.9 18.2 44 8.8 N 24 33 13 18 1006.5 1004.5 0.0
15/01:30pm 30.9 29.9 18.9 48 7.9 N 22 32 12 17 1006.7 1004.7 0.0
15/01:00pm 31.2 29.8 18.9 48 8.1 N 24 35 13 19 1006.9 1004.9 0.0
15/12:30pm 30.8 29.5 19.8 52 7.3 N 26 35 14 19 1007.2 1005.2 0.0
15/12:00pm 30.4 28.7 19.7 52 7.1 NNE 28 39 15 21 1007.7 1005.7 0.0
15/11:30am 29.4 28.4 20.5 58 6.0 NNE 26 33 14 18 1008.2 1006.3 0.0
15/11:00am 28.7 26.9 20.4 60 5.5 N 30 41 16 22 1008.8 1006.8 0.0
15/10:30am 28.6 26.7 20.1 60 5.6 N 30 39 16 21 1009.1 1007.1 0.0
15/10:00am 27.8 26.0 19.6 61 5.4 N 28 35 15 19 1009.2 1007.2 0.0
15/09:30am 27.6 26.1 18.6 58 5.8 NNE 24 30 13 16 1009.3 1007.3 0.0
15/09:00am 26.2 26.9 18.9 64 4.7 NNE 13 19 7 10 1009.3 1007.3 33.4
15/08:30am 25.7 26.4 18.9 66 4.4 NE 13 17 7 9 1009.4 1007.4 33.4
15/08:00am 24.4 24.7 18.8 71 3.6 NE 15 17 8 9 1009.3 1007.3 33.4
15/07:30am 24.0 24.2 18.6 72 3.5 ENE 15 19 8 10 1009.2 1007.2 33.4
15/07:00am 23.2 24.1 18.5 75 3.0 ENE 11 15 6 8 1009.0 1007.0 33.4
15/06:30am 21.9 23.0 18.1 79 2.4 E 9 15 5 8 1008.5 1006.6 33.4
15/06:00am 20.3 21.3 17.7 85 1.6 ESE 9 11 5 6 1008.0 1006.0 33.4
15/05:30am 19.0 20.2 17.3 90 1.0 ESE 7 9 4 5 1007.3 1005.3 33.4
15/05:00am 18.8 21.1 16.8 88 1.2 CALM 0 0 0 0 1006.6 1004.6 33.4
15/04:30am 19.1 20.4 17.1 88 1.2 W 6 7 3 4 1006.3 1004.3 33.4
15/04:00am 19.0 21.4 17.0 88 1.2 CALM 0 9 0 5 1006.4 1004.4 33.4
15/03:30am 19.2 21.1 16.8 86 1.5 N 2 6 1 3 1006.0 1004.0 33.4
15/03:00am 19.8 20.4 16.8 83 1.8 ENE 9 13 5 7 1005.8 1003.8 33.4
15/02:30am 20.1 19.6 16.9 82 2.0 ENE 15 17 8 9 1005.3 1003.3 33.4
15/02:00am 20.4 19.7 17.4 83 1.9 ENE 17 20 9 11 1005.1 1003.1 33.4
15/01:30am 20.3 20.1 17.5 84 1.7 NE 15 19 8 10 1005.4 1003.4 33.4
15/01:00am 20.7 19.8 17.7 83 1.9 ENE 19 28 10 15 1005.8 1003.8 33.4
15/12:30am 20.8 19.3 17.8 83 1.9 ENE 22 32 12 17 1005.9 1003.9 33.4
15/12:00am 21.0 18.5 18.0 83 1.9 ENE 28 35 15 19 1006.0 1004.0 33.4
 
Date/Time
EST
Temp
°C
App
Temp
°C
Dew
Point
°C
Rel
Hum
%
Delta-T
°C
Wind Press
QNH
hPa
Press
MSL
hPa
Rain since
9am
mm
Dir  Spd
km/h
Gust
km/h
Spd
kts
Gust
kts
14/11:30pm 20.9 17.6 18.3 85 1.6 ENE 33 46 18 25 1006.3 1004.3 33.4
14/11:00pm 20.7 16.6 18.3 86 1.5 ENE 37 50 20 27 1006.3 1004.3 33.4
14/10:30pm 20.4 17.5 18.0 86 1.5 NNE 30 39 16 21 1007.9 1005.9 32.8
14/10:00pm 20.8 16.9 17.8 83 1.9 ENE 35 48 19 26 1007.1 1005.1 32.6
14/09:30pm 20.4 17.5 18.0 86 1.5 E 30 39 16 21 1006.9 1004.9 32.6
14/09:00pm 20.5 18.9 18.3 87 1.4 ENE 24 32 13 17 1007.3 1005.3 32.4
14/08:30pm 21.0 20.5 19.1 89 1.2 ENE 20 28 11 15 1007.0 1005.0 30.6
14/08:00pm 21.1 20.2 19.0 88 1.3 ESE 22 28 12 15 1005.5 1003.5 27.6
14/07:30pm 20.5 20.8 17.9 85 1.6 SE 13 22 7 12 1006.2 1004.2 27.2
14/07:14pm 21.4 20.1 17.2 77 2.6 SW 20 32 11 17 1005.9 1003.9 22.4
14/07:00pm 21.1 19.6 16.7 76 2.7 NE 20 30 11 16 1003.8 1001.8 22.4
14/06:30pm 20.6 18.6 17.4 82 2.0 ENE 24 32 13 17 1004.0 1002.0 22.4
14/06:00pm 22.4 21.9 19.0 81 2.2 NE 20 33 11 18 1004.3 1002.3 21.4
14/05:30pm 22.3 23.8 19.8 86 1.6 ENE 11 17 6 9 1003.1 1001.1 21.4
14/05:00pm 21.2 22.7 18.9 87 1.5 NE 9 13 5 7 1003.3 1001.3 21.4
14/04:39pm 21.3 21.3 19.0 87 1.5 ENE 17 30 9 16 1001.8 999.8 21.4
14/04:30pm 21.4 20.7 18.6 84 1.8 N 20 30 11 16 1003.9 1001.9 21.0
14/04:10pm 19.8 13.7 15.2 75 2.8 WNW 41 70 22 38 1003.7 1001.7 19.0
14/04:07pm 19.5 11.8 13.4 68 3.5 NW 46 70 25 38 1003.7 1001.7 15.6
14/04:00pm 22.0 16.8 19.7 87 1.5 WNW 46 61 25 33 1002.8 1000.7 7.6
14/03:48pm 26.4 26.4 19.0 63 4.8 WSW 17 57 9 31 1002.8 1000.7 0.0
14/03:30pm 29.4 31.2 18.2 51 7.3 N 6 9 3 5 1001.4 999.4 0.0
14/03:00pm 30.3 30.2 17.0 44 8.5 NNE 13 19 7 10 1001.5 999.5 0.0
14/02:30pm 30.8 30.6 17.5 45 8.6 N 15 30 8 16 1001.7 999.7 0.0
14/02:00pm 30.4 29.1 16.8 44 8.7 NNE 19 28 10 15 1002.7 1000.6 0.0
14/01:30pm 31.4 30.5 17.7 44 8.9 N 19 30 10 16 1003.2 1001.2 0.0
14/01:00pm 30.7 30.0 19.4 51 7.5 NNW 22 32 12 17 1003.6 1001.6 0.0
14/12:30pm 29.5 28.4 18.6 52 7.1 NNW 22 33 12 18 1004.1 1002.1 0.0
14/12:00pm 29.0 27.5 20.2 59 5.9 N 28 33 15 18 1004.3 1002.3 0.0
14/11:30am 29.0 28.5 21.5 64 5.1 NNW 26 33 14 18 1004.8 1002.8 0.0
14/11:00am 27.9 26.5 19.7 61 5.4 N 26 33 14 18 1005.1 1003.1 0.0
14/10:30am 27.5 25.7 20.3 65 4.8 N 30 35 16 19 1005.2 1003.2 0.0
14/10:00am 26.3 24.8 19.4 66 4.5 N 26 35 14 19 1005.5 1003.5 0.0
14/09:30am 26.0 24.4 19.2 66 4.4 NNE 26 33 14 18 1005.8 1003.8 0.0
14/09:00am 23.5 23.2 19.2 77 2.8 NE 19 26 10 14 1005.8 1003.8 15.8
14/08:30am 22.1 21.9 18.5 80 2.3 NNE 17 26 9 14 1006.2 1004.2 15.8
14/08:00am 20.6 20.2 18.0 85 1.6 NE 17 24 9 13 1006.1 1004.1 15.8
14/07:30am 19.7 17.7 17.5 87 1.4 NNE 24 30 13 16 1005.9 1003.9 15.4
14/07:00am 19.6 18.9 17.4 87 1.4 N 17 20 9 11 1006.7 1004.7 14.6
14/06:30am 20.1 20.0 17.9 87 1.4 N 15 19 8 10 1006.9 1004.9 13.2
14/06:00am 20.0 21.7 18.0 88 1.3 NNW 6 11 3 6 1006.3 1004.3 12.6
14/05:30am 20.1 20.9 18.1 88 1.3 NW 11 13 6 7 1007.0 1005.0 11.6
14/05:00am 20.5 22.2 18.4 88 1.3 W 7 13 4 7 1006.9 1004.9 11.0
14/04:30am 20.8 21.8 18.6 87 1.4 WNW 11 15 6 8 1006.6 1004.6 10.2
14/04:00am 21.0 21.4 19.1 89 1.2 N 15 20 8 11 1005.1 1003.1 10.0
14/03:30am 20.7 19.2 18.6 88 1.3 N 24 30 13 16 1005.5 1003.5 8.6
14/03:00am 20.5 18.3 16.9 80 2.2 N 24 32 13 17 1005.0 1003.0 6.2
14/02:30am 20.9 18.0 18.8 88 1.3 NNW 32 41 17 22 1004.8 1002.8 5.2
14/02:00am 21.3 18.7 18.7 85 1.7 NNW 30 35 16 19 1005.2 1003.2 4.0
14/01:30am 21.8 20.3 18.6 82 2.0 N 24 32 13 17 1004.8 1002.8 3.4
14/01:00am 21.9 20.4 18.5 81 2.2 N 24 33 13 18 1004.8 1002.8 3.4
14/12:30am 21.9 20.4 18.5 81 2.2 N 24 30 13 16 1005.3 1003.3 3.4
14/12:00am 22.1 20.1 18.3 79 2.4 N 26 39 14 21 1005.2 1003.2 3.0
 
Date/Time
EST
Temp
°C
App
Temp
°C
Dew
Point
°C
Rel
Hum
%
Delta-T
°C
Wind Press
QNH
hPa
Press
MSL
hPa
Rain since
9am
mm
Dir  Spd
km/h
Gust
km/h
Spd
kts
Gust
kts
13/11:57pm 22.2 20.6 18.4 79 2.4 NNE 24 32 13 17 1005.4 1003.4 2.8
13/11:30pm 22.3 22.7 19.1 82 2.1 S 15 20 8 11 1006.7 1004.7 1.8
13/11:00pm 22.7 23.0 18.7 78 2.6 N 15 19 8 10 1006.3 1004.3 1.6
13/10:30pm 21.7 22.2 19.3 86 1.5 NNE 15 19 8 10 1005.3 1003.3 1.6
13/10:00pm 21.6 23.6 19.2 86 1.5 ENE 7 9 4 5 1006.1 1004.1 1.6
13/09:30pm 21.5 22.0 19.2 87 1.5 NE 15 22 8 12 1005.3 1003.3 1.6
13/09:00pm 21.4 21.0 19.3 88 1.4 ENE 20 24 11 13 1005.1 1003.1 1.6
13/08:30pm 21.3 21.7 19.0 87 1.5 E 15 20 8 11 1005.8 1003.8 1.6
13/08:00pm 21.5 21.1 18.9 85 1.7 WSW 19 33 10 18 1007.5 1005.5 0.2
13/07:33pm 23.5 21.0 17.0 67 4.1 WSW 26 46 14 25 1007.0 1005.0 0.0
13/07:30pm 24.3 22.2 16.3 61 5.0 WNW 22 43 12 23 1007.1 1005.1 0.0
13/07:00pm 27.5 24.9 14.8 45 7.8 N 22 30 12 16 1005.9 1003.9 0.0
13/06:30pm 26.8 24.1 15.5 50 7.0 N 24 32 13 17 1005.3 1003.3 0.0
13/06:00pm 28.5 24.1 14.0 41 8.8 N 30 39 16 21 1004.9 1002.9 0.0
13/05:30pm 28.9 23.8 13.6 39 9.2 N 33 43 18 23 1004.1 1002.1 0.0
13/05:00pm 29.4 23.8 13.2 37 9.8 N 35 48 19 26 1003.9 1001.9 0.0
13/04:30pm 30.0 24.5 12.4 34 10.5 N 33 44 18 24 1003.5 1001.5 0.0
13/04:00pm 31.3 25.8 12.6 31 11.3 N 33 48 18 26 1003.2 1001.2 0.0
13/03:30pm 31.5 25.4 11.8 30 11.7 N 35 50 19 27 1003.2 1001.2 0.0
13/03:00pm 31.3 25.1 12.6 31 11.3 N 37 52 20 28 1003.3 1001.3 0.0
13/02:31pm 31.8 26.5 13.1 32 11.3 N 33 52 18 28 1003.9 1001.9 0.0
13/02:30pm 31.9 26.8 13.6 32 11.2 N 33 44 18 24 1004.0 1002.0 0.0
13/02:00pm 31.5 26.3 12.8 32 11.3 N 32 46 17 25 1005.0 1003.0 0.0
13/01:30pm 31.9 26.1 12.7 31 11.6 N 35 48 19 26 1005.7 1003.7 0.0
13/01:00pm 31.6 27.1 13.8 34 10.9 N 30 41 16 22 1006.2 1004.2 0.0
13/12:30pm 30.3 25.7 13.6 36 10.1 N 30 46 16 25 1006.8 1004.8 0.0
13/12:00pm 31.0 26.4 15.0 38 10.0 N 33 43 18 23 1007.0 1005.0 0.0
13/11:30am 29.6 25.5 15.0 41 9.0 N 30 43 16 23 1007.9 1005.9 0.0
13/11:00am 28.9 25.1 14.7 42 8.7 N 28 43 15 23 1008.5 1006.6 0.0
13/10:30am 27.5 23.7 14.8 45 7.8 N 28 43 15 23 1009.1 1007.1 0.0
13/10:00am 27.7 25.0 15.7 48 7.5 N 24 32 13 17 1009.4 1007.4 0.0
13/09:30am 25.6 23.0 15.0 52 6.5 N 22 35 12 19 1010.1 1008.1 0.0
13/09:00am 24.7 22.3 15.3 56 5.7 N 22 33 12 18 1010.3 1008.3 0.0
13/08:30am 23.4 20.2 15.2 60 5.0 N 26 35 14 19 1010.6 1008.6 0.0
13/08:00am 23.0 18.6 15.1 61 4.8 N 32 39 17 21 1010.7 1008.7 0.0
13/07:30am 22.6 18.4 14.7 61 4.7 N 30 35 16 19 1010.8 1008.9 0.0
13/07:00am 22.0 18.7 14.9 64 4.3 N 26 32 14 17 1010.9 1009.0 0.0
13/06:30am 21.6 19.0 15.0 66 4.0 N 22 30 12 16 1010.9 1009.0 0.0
13/06:00am 21.0 19.1 15.1 69 3.5 NNE 19 22 10 12 1010.6 1008.6 0.0
13/05:30am 20.9 20.1 15.0 69 3.5 N 13 19 7 10 1010.3 1008.3 0.0

Other Formats:

Comma delimited format used in spreadsheet applications
http://www.bom.gov.au/fwo/IDQ60801/IDQ60801.94542.axf

JavaScript Object Notation format (JSON) in row-major order
http://www.bom.gov.au/fwo/IDQ60801/IDQ60801.94542.json